Oswego, New York
Current Conditions -  °F | °C
As of 3:33 PM on Wednesday 26 Nov 2014 (Local Time) from KFZY Reporting Station
Light Snow Light Snow  
Wind Chill: 33°   Ceiling: 500
Heat Index: 33°   Visibility: 1mi
Dew Point: 29°   Wind: 0mph
Humidity: 85%   Direction: NA
Pressure: 30.09"   Gusts: NA
Location:  43.46°N, 76.51°W
Report Text: KFZY 262033Z AUTO 00000KT 1SM -SN BR BKN005 BKN009 OVC021 01/M02 A3009 RMK AO2 P0000 T00061017
Loading
Personal Weather Stations






























Interactive Weather Map New forecast layout! Learn more

10-Day Weather Forecast

Advertisements
Track Severe Weather on mobile